createdAt,value
2018-01-10T00:00:29.252Z,84.30
2018-01-10T00:01:29.380Z,80.50
2018-01-10T00:02:29.318Z,73.80
2018-01-10T00:03:29.342Z,72.10
2018-01-10T00:04:29.372Z,74.20
2018-01-10T00:05:29.415Z,85.20
2018-01-10T00:06:29.429Z,102.30
2018-01-10T00:07:29.463Z,79.30
2018-01-10T00:08:29.491Z,89.10
2018-01-10T00:09:29.538Z,90.40
2018-01-10T00:10:29.551Z,76.50
2018-01-10T00:11:29.577Z,76.60
2018-01-10T00:12:29.603Z,89.00
2018-01-10T00:13:29.637Z,88.10
2018-01-10T00:14:29.660Z,104.80
2018-01-10T00:15:29.692Z,91.40
2018-01-10T00:16:29.780Z,84.50
2018-01-10T00:17:29.749Z,84.80
2018-01-10T00:18:29.778Z,68.70
2018-01-10T00:19:29.809Z,77.10
2018-01-10T00:20:29.834Z,78.30
2018-01-10T00:21:29.864Z,65.50
2018-01-10T00:22:29.893Z,68.90
2018-01-10T00:23:29.920Z,71.30
2018-01-10T00:24:29.950Z,68.60
2018-01-10T00:25:30.382Z,73.60
2018-01-10T00:26:30.011Z,70.50
2018-01-10T00:27:30.043Z,58.70
2018-01-10T00:28:30.065Z,76.20
2018-01-10T00:29:30.110Z,68.20
2018-01-10T00:30:30.125Z,92.90
2018-01-10T00:31:30.154Z,70.00
2018-01-10T00:32:30.183Z,82.70
2018-01-10T00:33:30.212Z,83.30
2018-01-10T00:34:30.241Z,54.90
2018-01-10T00:35:30.285Z,63.90
2018-01-10T00:36:30.297Z,53.10
2018-01-10T00:37:30.326Z,59.50
2018-01-10T00:38:30.356Z,69.40
2018-01-10T00:39:30.383Z,51.50
2018-01-10T00:40:30.414Z,56.70
2018-01-10T00:41:30.447Z,53.40
2018-01-10T00:42:30.491Z,48.00
2018-01-10T00:43:30.502Z,50.00
2018-01-10T00:44:30.531Z,54.20
2018-01-10T00:45:30.557Z,53.20
2018-01-10T00:46:30.592Z,57.40
2018-01-10T00:47:30.617Z,54.60
2018-01-10T00:48:30.644Z,51.10
2018-01-10T00:49:30.674Z,47.70
2018-01-10T00:50:30.705Z,48.30
2018-01-10T00:51:30.736Z,47.90
2018-01-10T00:52:30.762Z,56.20
2018-01-10T00:53:30.793Z,55.30
2018-01-10T00:54:30.824Z,56.10
2018-01-10T00:55:30.848Z,49.70
2018-01-10T00:56:30.898Z,49.30
2018-01-10T00:57:30.906Z,55.80
2018-01-10T00:58:30.937Z,50.00
2018-01-10T00:59:30.963Z,54.60
2018-01-10T01:00:30.995Z,52.00
2018-01-10T01:01:31.036Z,49.00
2018-01-10T01:02:31.055Z,46.70
2018-01-10T01:03:31.081Z,48.40
2018-01-10T01:04:31.109Z,47.40
2018-01-10T01:05:31.141Z,46.40
2018-01-10T01:06:31.167Z,47.70
2018-01-10T01:07:31.194Z,50.00
2018-01-10T01:08:31.226Z,48.30
2018-01-10T01:09:31.254Z,52.00
2018-01-10T01:10:31.289Z,53.50
2018-01-10T01:11:31.328Z,53.70
2018-01-10T01:12:31.341Z,56.50
2018-01-10T01:13:31.370Z,55.10
2018-01-10T01:14:31.414Z,53.70
2018-01-10T01:15:31.428Z,61.80
2018-01-10T01:16:31.461Z,60.50
2018-01-10T01:17:31.485Z,61.00
2018-01-10T01:18:31.572Z,65.30
2018-01-10T01:19:31.545Z,64.90
2018-01-10T01:20:31.575Z,73.00
2018-01-10T01:21:31.606Z,59.80
2018-01-10T01:22:31.632Z,63.00
2018-01-10T01:23:31.666Z,64.60
2018-01-10T01:24:31.698Z,80.50
2018-01-10T01:25:31.719Z,71.20
2018-01-10T01:26:31.750Z,64.00
2018-01-10T01:27:31.776Z,59.20
2018-01-10T01:28:31.807Z,70.00
2018-01-10T01:29:31.838Z,69.70
2018-01-10T01:30:31.866Z,68.60
2018-01-10T01:31:31.903Z,61.70
2018-01-10T01:32:31.929Z,65.20
2018-01-10T01:33:31.971Z,59.90
2018-01-10T01:34:31.990Z,55.60
2018-01-10T01:35:32.040Z,59.80
2018-01-10T01:36:32.042Z,57.80
2018-01-10T01:37:32.073Z,56.40
2018-01-10T01:38:32.098Z,63.50
2018-01-10T01:39:32.127Z,54.80
2018-01-10T01:40:32.161Z,57.90
2018-01-10T01:41:32.187Z,51.80
2018-01-10T01:42:32.218Z,49.80
2018-01-10T01:43:32.245Z,52.60
2018-01-10T01:44:32.274Z,53.20
2018-01-10T01:45:32.318Z,45.70
2018-01-10T01:46:32.333Z,48.50
2018-01-10T01:47:32.362Z,51.50
2018-01-10T01:48:32.389Z,51.20
2018-01-10T01:49:32.424Z,49.50
2018-01-10T01:50:32.450Z,50.90
2018-01-10T01:51:32.482Z,52.60
2018-01-10T01:52:32.510Z,47.50
2018-01-10T01:53:32.539Z,48.60
2018-01-10T01:54:32.626Z,52.80
2018-01-10T01:55:32.597Z,48.10
2018-01-10T01:56:32.624Z,46.80
2018-01-10T01:57:32.654Z,42.80
2018-01-10T01:58:32.685Z,44.50
2018-01-10T01:59:32.712Z,43.40
2018-01-10T02:00:32.742Z,45.20
2018-01-10T02:01:32.774Z,43.30
2018-01-10T02:02:32.800Z,41.50
2018-01-10T02:03:32.832Z,38.90
2018-01-10T02:04:32.862Z,37.30
2018-01-10T02:05:32.891Z,38.80
2018-01-10T02:06:32.980Z,41.60
2018-01-10T02:07:32.946Z,40.90
2018-01-10T02:08:32.990Z,43.50
2018-01-10T02:09:33.011Z,47.20
2018-01-10T02:10:33.100Z,46.40
2018-01-10T02:11:33.086Z,43.10
2018-01-10T02:12:33.099Z,46.70
2018-01-10T02:13:33.125Z,48.10
2018-01-10T02:14:33.154Z,48.20
2018-01-10T02:15:33.182Z,46.90
2018-01-10T02:16:33.210Z,53.80
2018-01-10T02:17:33.242Z,49.40
2018-01-10T02:18:33.594Z,45.20
2018-01-10T02:19:33.306Z,51.30
2018-01-10T02:20:33.343Z,49.10
2018-01-10T02:21:33.357Z,49.70
2018-01-10T02:22:33.393Z,49.40
2018-01-10T02:23:33.416Z,53.90
2018-01-10T02:24:33.449Z,51.20
2018-01-10T02:25:33.473Z,56.60
2018-01-10T02:26:33.517Z,51.60
2018-01-10T02:27:33.533Z,55.40
2018-01-10T02:28:33.618Z,59.00
2018-01-10T02:29:33.593Z,53.10
2018-01-10T02:30:33.620Z,56.00
2018-01-10T02:31:33.649Z,66.50
2018-01-10T02:32:33.689Z,71.70
2018-01-10T02:33:33.706Z,74.20
2018-01-10T02:34:33.737Z,78.30
2018-01-10T02:35:33.765Z,66.00
2018-01-10T02:36:33.796Z,73.60
2018-01-10T02:37:33.831Z,76.50
2018-01-10T02:38:33.860Z,87.40
2018-01-10T02:39:33.881Z,75.10
2018-01-10T02:40:33.915Z,86.80
2018-01-10T02:41:33.939Z,80.30
2018-01-10T02:42:33.970Z,76.30
2018-01-10T02:43:33.998Z,87.40
2018-01-10T02:44:34.029Z,90.20
2018-01-10T02:45:34.056Z,88.40
2018-01-10T02:46:34.101Z,86.70
2018-01-10T02:47:34.436Z,75.70
2018-01-10T02:48:34.146Z,70.40
2018-01-10T02:49:34.177Z,73.70
2018-01-10T02:50:34.208Z,62.40
2018-01-10T02:51:34.230Z,71.70
2018-01-10T02:52:34.260Z,60.00
2018-01-10T02:53:34.290Z,52.40
2018-01-10T02:54:34.327Z,59.80
2018-01-10T02:55:34.352Z,52.20
2018-01-10T02:56:34.393Z,50.10
2018-01-10T02:57:34.408Z,49.00
2018-01-10T02:58:34.495Z,43.40
2018-01-10T02:59:34.468Z,44.90
2018-01-10T03:00:34.499Z,48.20
2018-01-10T03:01:34.528Z,46.50
2018-01-10T03:02:34.557Z,45.40
2018-01-10T03:03:34.584Z,45.30
2018-01-10T03:04:34.623Z,44.30
2018-01-10T03:05:34.645Z,42.20
2018-01-10T03:06:34.674Z,41.90
2018-01-10T03:07:34.757Z,43.50
2018-01-10T03:08:34.731Z,50.10
2018-01-10T03:09:34.767Z,60.40
2018-01-10T03:10:34.792Z,57.20
2018-01-10T03:11:34.904Z,55.10
2018-01-10T03:12:34.848Z,60.00
2018-01-10T03:13:34.878Z,57.90
2018-01-10T03:14:34.909Z,54.50
2018-01-10T03:15:34.939Z,49.90
2018-01-10T03:16:34.968Z,54.70
2018-01-10T03:17:34.998Z,52.50
2018-01-10T03:18:35.028Z,45.20
2018-01-10T03:19:35.054Z,43.90
2018-01-10T03:20:35.086Z,44.70
2018-01-10T03:21:35.119Z,44.00
2018-01-10T03:22:35.142Z,39.20
2018-01-10T03:23:35.172Z,39.20
2018-01-10T03:24:35.201Z,39.60
2018-01-10T03:25:35.229Z,39.50
2018-01-10T03:26:35.260Z,41.50
2018-01-10T03:27:35.288Z,38.70
2018-01-10T03:28:35.320Z,41.10
2018-01-10T03:29:35.352Z,38.60
2018-01-10T03:30:35.382Z,37.60
2018-01-10T03:31:35.405Z,38.40
2018-01-10T03:32:35.436Z,37.80
2018-01-10T03:33:35.466Z,38.00
2018-01-10T03:34:35.510Z,41.60
2018-01-10T03:35:35.527Z,38.90
2018-01-10T03:36:35.554Z,37.40
2018-01-10T03:37:35.583Z,37.50
2018-01-10T03:38:35.630Z,36.50
2018-01-10T03:39:35.643Z,36.70
2018-01-10T03:40:35.671Z,34.80
2018-01-10T03:41:35.701Z,35.70
2018-01-10T03:42:35.735Z,32.30
2018-01-10T03:43:35.761Z,35.20
2018-01-10T03:44:35.792Z,35.20
2018-01-10T03:45:35.822Z,37.20
2018-01-10T03:46:35.853Z,35.20
2018-01-10T03:47:35.933Z,33.50
2018-01-10T03:48:35.908Z,35.50
2018-01-10T03:49:35.937Z,36.50
2018-01-10T03:50:35.983Z,37.10
2018-01-10T03:51:35.995Z,40.50
2018-01-10T03:52:36.027Z,35.30
2018-01-10T03:53:36.056Z,35.40
2018-01-10T03:54:36.152Z,35.90
2018-01-10T03:55:36.114Z,36.50
2018-01-10T03:56:36.144Z,36.40
2018-01-10T03:57:36.178Z,39.50
2018-01-10T03:58:36.203Z,33.60
2018-01-10T03:59:36.233Z,37.50
2018-01-10T04:00:36.263Z,35.90
2018-01-10T04:02:36.324Z,33.70
2018-01-10T04:03:36.372Z,33.50
2018-01-10T04:04:36.385Z,33.20
2018-01-10T04:05:36.409Z,34.00
2018-01-10T04:06:36.752Z,35.80
2018-01-10T04:07:36.466Z,30.40
2018-01-10T04:08:36.497Z,33.40
2018-01-10T04:09:36.527Z,30.40
2018-01-10T04:10:36.554Z,30.80
2018-01-10T04:11:36.595Z,32.50
2018-01-10T04:12:36.614Z,33.20
2018-01-10T04:13:36.645Z,32.70
2018-01-10T04:14:36.675Z,31.20
2018-01-10T04:15:36.705Z,31.50
2018-01-10T04:16:36.734Z,29.10
2018-01-10T04:17:36.765Z,32.00
2018-01-10T04:18:36.797Z,30.50
2018-01-10T04:19:36.820Z,32.80
2018-01-10T04:20:36.851Z,30.20
2018-01-10T04:21:36.882Z,31.10
2018-01-10T04:22:36.909Z,29.00
2018-01-10T04:23:37.000Z,29.80
2018-01-10T04:24:36.968Z,31.10
2018-01-10T04:25:36.999Z,30.90
2018-01-10T04:26:37.030Z,32.90
2018-01-10T04:27:37.056Z,32.10
2018-01-10T04:28:37.088Z,32.30
2018-01-10T04:29:37.117Z,31.90
2018-01-10T04:30:37.550Z,34.10
2018-01-10T04:31:37.178Z,29.80
2018-01-10T04:32:37.220Z,33.70
2018-01-10T04:33:37.241Z,34.60
2018-01-10T04:34:37.467Z,32.50
2018-01-10T04:35:37.292Z,33.00
2018-01-10T04:36:37.322Z,34.30
2018-01-10T04:37:37.355Z,36.90
2018-01-10T04:38:37.383Z,36.50
2018-01-10T04:39:37.412Z,34.90
2018-01-10T04:40:37.443Z,34.30
2018-01-10T04:41:37.471Z,35.40
2018-01-10T04:42:37.501Z,35.70
2018-01-10T04:43:37.528Z,33.20
2018-01-10T04:44:37.559Z,32.30
2018-01-10T04:45:37.589Z,33.50
2018-01-10T04:46:37.618Z,35.40
2018-01-10T04:47:37.713Z,36.70
2018-01-10T04:48:37.679Z,32.00
2018-01-10T04:49:37.710Z,36.10
2018-01-10T04:50:37.746Z,37.30
2018-01-10T04:51:37.789Z,36.50
2018-01-10T04:52:37.798Z,35.40
2018-01-10T04:53:37.824Z,42.30
2018-01-10T04:54:37.854Z,40.60
2018-01-10T04:55:37.885Z,37.70
2018-01-10T04:56:37.914Z,37.10
2018-01-10T04:57:37.959Z,41.00
2018-01-10T04:58:37.973Z,34.80
2018-01-10T04:59:38.000Z,35.30
2018-01-10T05:00:38.035Z,34.80
2018-01-10T05:01:38.060Z,35.30
2018-01-10T05:02:38.105Z,33.50
2018-01-10T05:03:38.121Z,34.10
2018-01-10T05:04:38.183Z,33.20
2018-01-10T05:05:38.182Z,35.20
2018-01-10T05:06:38.212Z,34.90
2018-01-10T05:07:38.238Z,39.30
2018-01-10T05:08:38.271Z,34.70
2018-01-10T05:09:38.315Z,36.00
2018-01-10T05:10:38.326Z,36.40
2018-01-10T05:11:38.444Z,37.10
2018-01-10T05:12:38.388Z,34.70
2018-01-10T05:13:38.420Z,34.60
2018-01-10T05:14:38.448Z,33.60
2018-01-10T05:15:38.478Z,36.00
2018-01-10T05:16:38.507Z,34.40
2018-01-10T05:17:38.535Z,33.00
2018-01-10T05:18:38.621Z,33.80
2018-01-10T05:19:38.595Z,36.60
2018-01-10T05:20:38.624Z,34.50
2018-01-10T05:21:38.654Z,34.40
2018-01-10T05:22:38.685Z,35.00
2018-01-10T05:23:38.782Z,32.10
2018-01-10T05:24:38.742Z,31.80
2018-01-10T05:25:38.787Z,34.30
2018-01-10T05:26:38.803Z,33.70
2018-01-10T05:27:38.832Z,32.40
2018-01-10T05:28:38.863Z,30.70
2018-01-10T05:29:38.893Z,32.60
2018-01-10T05:30:38.924Z,32.50
2018-01-10T05:31:38.954Z,32.10
2018-01-10T05:32:38.984Z,32.60
2018-01-10T05:33:39.026Z,31.70
2018-01-10T05:34:39.044Z,30.40
2018-01-10T05:35:39.088Z,30.20
2018-01-10T05:36:39.105Z,33.00
2018-01-10T05:37:39.146Z,30.90
2018-01-10T05:38:39.164Z,30.60
2018-01-10T05:39:39.198Z,32.10
2018-01-10T05:40:39.422Z,29.60
2018-01-10T05:41:39.251Z,29.70
2018-01-10T05:42:39.285Z,28.70
2018-01-10T05:43:39.310Z,33.40
2018-01-10T05:44:39.340Z,32.10
2018-01-10T05:45:39.374Z,31.70
2018-01-10T05:46:39.406Z,33.40
2018-01-10T05:47:39.495Z,33.20
2018-01-10T05:48:39.460Z,31.90
2018-01-10T05:49:39.492Z,31.60
2018-01-10T05:50:39.521Z,29.10
2018-01-10T05:51:39.549Z,30.90
2018-01-10T05:52:39.892Z,29.60
2018-01-10T05:53:39.611Z,29.50
2018-01-10T05:54:39.639Z,28.60
2018-01-10T05:55:39.687Z,27.40
2018-01-10T05:56:39.699Z,30.60
2018-01-10T05:57:39.729Z,30.60
2018-01-10T05:58:39.774Z,28.50
2018-01-10T05:59:39.788Z,29.20
2018-01-10T06:00:39.818Z,31.10
2018-01-10T06:01:39.848Z,32.80
2018-01-10T06:02:39.882Z,33.30
2018-01-10T06:03:39.906Z,29.10
2018-01-10T06:04:39.992Z,33.50
2018-01-10T06:05:39.967Z,33.80
2018-01-10T06:06:40.005Z,34.00
2018-01-10T06:07:40.031Z,33.30
2018-01-10T06:08:40.058Z,34.30
2018-01-10T06:09:40.097Z,33.90
2018-01-10T06:10:40.118Z,35.30
2018-01-10T06:11:40.160Z,37.30
2018-01-10T06:13:40.211Z,34.90
2018-01-10T06:14:40.238Z,34.40
2018-01-10T06:15:40.271Z,35.70
2018-01-10T06:16:40.298Z,30.70
2018-01-10T06:17:40.328Z,36.60
2018-01-10T06:18:40.363Z,33.90
2018-01-10T06:19:40.388Z,35.10
2018-01-10T06:20:40.420Z,31.60
2018-01-10T06:21:40.448Z,33.50
2018-01-10T06:22:40.480Z,36.70
2018-01-10T06:23:40.554Z,33.30
2018-01-10T06:24:40.543Z,34.90
2018-01-10T06:25:40.574Z,36.80
2018-01-10T06:26:40.593Z,36.20
2018-01-10T06:27:40.628Z,36.70
2018-01-10T06:28:40.655Z,36.60
2018-01-10T06:29:40.702Z,38.60
2018-01-10T06:30:40.716Z,39.60
2018-01-10T06:31:40.745Z,45.00
2018-01-10T06:32:40.775Z,42.30
2018-01-10T06:33:40.805Z,40.00
2018-01-10T06:34:40.837Z,53.00
2018-01-10T06:35:40.867Z,54.90
2018-01-10T06:36:40.895Z,45.00
2018-01-10T06:37:40.924Z,73.40
2018-01-10T06:38:40.956Z,57.50
2018-01-10T06:39:40.985Z,81.60
2018-01-10T06:40:41.031Z,85.30
2018-01-10T06:41:41.043Z,106.70
2018-01-10T06:42:41.074Z,113.10
2018-01-10T06:43:41.104Z,106.10
2018-01-10T06:44:41.133Z,112.00
2018-01-10T06:45:41.176Z,63.90
2018-01-10T06:46:41.196Z,61.90
2018-01-10T06:47:41.266Z,53.40
2018-01-10T06:48:41.252Z,57.20
2018-01-10T06:49:41.282Z,72.50
2018-01-10T06:50:41.312Z,69.80
2018-01-10T06:51:41.343Z,60.90
2018-01-10T06:52:41.372Z,50.50
2018-01-10T06:53:41.402Z,49.00
2018-01-10T06:54:41.432Z,38.50
2018-01-10T06:55:41.462Z,40.20
2018-01-10T06:56:41.492Z,40.50
2018-01-10T06:57:41.521Z,39.30
2018-01-10T06:58:41.558Z,41.10
2018-01-10T06:59:41.584Z,38.60
2018-01-10T07:00:41.613Z,36.40
2018-01-10T07:01:41.643Z,35.70
2018-01-10T07:02:41.678Z,39.70
2018-01-10T07:03:41.700Z,36.00
2018-01-10T07:04:41.730Z,37.90
2018-01-10T07:05:41.761Z,34.50
2018-01-10T07:06:42.116Z,36.70
2018-01-10T07:07:41.840Z,37.20
2018-01-10T07:08:41.850Z,41.60
2018-01-10T07:09:41.879Z,34.40
2018-01-10T07:10:41.909Z,38.10
2018-01-10T07:11:42.005Z,40.60
2018-01-10T07:12:41.972Z,34.80
2018-01-10T07:13:42.001Z,33.60
2018-01-10T07:14:42.027Z,33.00
2018-01-10T07:15:42.059Z,32.60
2018-01-10T07:16:42.090Z,32.60
2018-01-10T07:17:42.117Z,32.10
2018-01-10T07:18:42.147Z,29.90
2018-01-10T07:19:42.178Z,30.30
2018-01-10T07:20:42.205Z,32.60
2018-01-10T07:21:42.238Z,31.90
2018-01-10T07:22:42.270Z,30.60
2018-01-10T07:23:42.325Z,31.30
2018-01-10T07:24:42.328Z,43.00
2018-01-10T07:25:42.356Z,42.90
2018-01-10T07:26:42.387Z,38.50
2018-01-10T07:27:42.418Z,33.70
2018-01-10T07:28:42.445Z,38.40
2018-01-10T07:29:42.476Z,42.90
2018-01-10T07:30:42.504Z,35.00
2018-01-10T07:31:42.537Z,38.10
2018-01-10T07:32:42.567Z,38.90
2018-01-10T07:33:42.598Z,36.70
2018-01-10T07:34:42.627Z,37.80
2018-01-10T07:35:42.657Z,34.50
2018-01-10T07:36:42.687Z,34.00
2018-01-10T07:37:42.730Z,36.70
2018-01-10T07:38:42.754Z,35.70
2018-01-10T07:39:42.776Z,34.80
2018-01-10T07:40:42.808Z,37.20
2018-01-10T07:41:42.839Z,35.50
2018-01-10T07:42:42.867Z,33.70
2018-01-10T07:43:42.893Z,34.80
2018-01-10T07:44:42.928Z,33.90
2018-01-10T07:45:42.961Z,32.70
2018-01-10T07:46:43.189Z,34.50
2018-01-10T07:47:43.127Z,34.50
2018-01-10T07:48:43.043Z,35.40
2018-01-10T07:49:43.073Z,37.30
2018-01-10T07:50:43.112Z,37.30
2018-01-10T07:51:43.134Z,38.10
2018-01-10T07:52:43.163Z,42.90
2018-01-10T07:53:43.196Z,79.80
2018-01-10T07:54:43.227Z,78.00
2018-01-10T07:55:43.252Z,124.50
2018-01-10T07:56:43.282Z,71.10
2018-01-10T07:57:43.312Z,59.70
2018-01-10T07:58:43.343Z,52.20
2018-01-10T07:59:43.383Z,46.50
2018-01-10T08:00:43.405Z,47.60
2018-01-10T08:01:43.448Z,47.60
2018-01-10T08:02:43.470Z,47.90
2018-01-10T08:03:43.492Z,43.80
2018-01-10T08:04:43.523Z,39.30
2018-01-10T08:05:43.553Z,39.60
2018-01-10T08:06:43.597Z,39.70
2018-01-10T08:07:43.613Z,57.20
2018-01-10T08:08:43.643Z,65.10
2018-01-10T08:09:43.676Z,56.30
2018-01-10T08:10:43.704Z,36.60
2018-01-10T08:11:43.742Z,42.90
2018-01-10T08:12:43.765Z,44.50
2018-01-10T08:13:43.793Z,41.60
2018-01-10T08:14:43.824Z,37.10
2018-01-10T08:15:43.863Z,41.50
2018-01-10T08:16:43.886Z,39.30
2018-01-10T08:17:43.915Z,36.80
2018-01-10T08:18:43.945Z,38.40
2018-01-10T08:19:43.974Z,36.70
2018-01-10T08:20:44.001Z,34.10
2018-01-10T08:21:44.035Z,35.30
2018-01-10T08:22:44.063Z,37.30
2018-01-10T08:23:44.202Z,34.30
2018-01-10T08:24:44.124Z,35.30
2018-01-10T08:25:44.155Z,40.20
2018-01-10T08:26:44.183Z,35.60
2018-01-10T08:27:44.214Z,34.10
2018-01-10T08:28:44.249Z,34.20
2018-01-10T08:29:44.277Z,37.60
2018-01-10T08:30:44.306Z,38.30
2018-01-10T08:31:44.338Z,34.40
2018-01-10T08:32:44.367Z,37.30
2018-01-10T08:33:44.396Z,39.50
2018-01-10T08:34:44.437Z,36.90
2018-01-10T08:35:44.461Z,34.30
2018-01-10T08:36:44.488Z,34.50
2018-01-10T08:37:44.518Z,39.10
2018-01-10T08:38:44.547Z,34.50
2018-01-10T08:39:44.577Z,35.20
2018-01-10T08:40:44.831Z,32.30
2018-01-10T08:41:44.637Z,31.60
2018-01-10T08:42:44.669Z,31.30
2018-01-10T08:43:44.701Z,32.80
2018-01-10T08:44:44.730Z,33.70
2018-01-10T08:45:44.759Z,37.30
2018-01-10T08:46:44.797Z,33.10
2018-01-10T08:47:44.820Z,33.30
2018-01-10T08:48:44.854Z,35.60
2018-01-10T08:49:44.884Z,31.80
2018-01-10T08:50:44.919Z,29.40
2018-01-10T08:51:44.945Z,28.20
2018-01-10T08:52:44.980Z,35.40
2018-01-10T08:53:45.008Z,33.70
2018-01-10T08:54:45.039Z,33.20
2018-01-10T08:55:45.086Z,29.30
2018-01-10T08:56:45.108Z,26.70
2018-01-10T08:57:45.129Z,30.70
2018-01-10T08:58:45.167Z,30.00
2018-01-10T08:59:45.212Z,29.80
2018-01-10T09:00:45.227Z,28.80
2018-01-10T09:01:45.251Z,28.30
2018-01-10T09:02:45.287Z,26.90
2018-01-10T09:03:45.518Z,28.50
2018-01-10T09:04:45.345Z,27.80
2018-01-10T09:05:45.376Z,30.10
2018-01-10T09:06:45.491Z,30.50
2018-01-10T09:07:45.438Z,27.30
2018-01-10T09:08:45.470Z,28.20
2018-01-10T09:09:45.501Z,26.80
2018-01-10T09:10:45.532Z,25.00
2018-01-10T09:11:45.564Z,24.70
2018-01-10T09:12:45.657Z,24.90
2018-01-10T09:13:45.628Z,24.80
2018-01-10T09:14:45.673Z,24.80
2018-01-10T09:15:45.689Z,24.00
2018-01-10T09:16:45.718Z,22.00
2018-01-10T09:17:45.750Z,25.60
2018-01-10T09:18:45.781Z,24.80
2018-01-10T09:19:45.812Z,22.80
2018-01-10T09:20:45.840Z,24.50
2018-01-10T09:21:45.883Z,23.70
2018-01-10T09:22:45.906Z,22.40
2018-01-10T09:23:45.958Z,22.40
2018-01-10T09:24:45.972Z,19.90
2018-01-10T09:25:46.001Z,19.10
2018-01-10T09:26:46.061Z,20.30
2018-01-10T09:27:46.065Z,19.20
2018-01-10T09:28:46.092Z,20.10
2018-01-10T09:29:46.124Z,19.50
2018-01-10T09:30:46.255Z,17.50
2018-01-10T09:31:46.192Z,16.50
2018-01-10T09:32:46.219Z,16.50
2018-01-10T09:33:46.255Z,15.70
2018-01-10T09:34:46.284Z,18.10
2018-01-10T09:35:46.327Z,17.50
2018-01-10T09:36:46.346Z,15.30
2018-01-10T09:37:46.394Z,14.50
2018-01-10T09:38:46.411Z,16.80
2018-01-10T09:39:46.444Z,17.70
2018-01-10T09:40:46.474Z,16.70
2018-01-10T09:41:46.507Z,15.30
2018-01-10T09:42:46.602Z,16.60
2018-01-10T09:43:46.580Z,16.40
2018-01-10T09:44:46.655Z,15.90
2018-01-10T09:45:46.637Z,15.80
2018-01-10T09:46:46.674Z,17.60
2018-01-10T09:47:46.701Z,14.70
2018-01-10T09:48:46.733Z,14.70
2018-01-10T09:49:46.828Z,15.00
2018-01-10T09:50:46.812Z,15.40
2018-01-10T09:51:46.837Z,15.10
2018-01-10T09:52:46.864Z,12.90
2018-01-10T09:53:46.912Z,14.50
2018-01-10T09:54:46.944Z,15.90
2018-01-10T09:55:46.962Z,14.70
2018-01-10T09:56:46.999Z,13.50
2018-01-10T09:57:47.028Z,12.10
2018-01-10T09:58:47.064Z,12.10
2018-01-10T09:59:47.097Z,12.40
2018-01-10T10:00:47.124Z,13.60
2018-01-10T10:01:47.163Z,11.60
2018-01-10T10:02:47.192Z,12.70
2018-01-10T10:03:47.226Z,11.30
2018-01-10T10:04:47.264Z,12.60
2018-01-10T10:05:47.293Z,10.60
2018-01-10T10:06:47.328Z,10.10
2018-01-10T10:07:47.359Z,11.70
2018-01-10T10:08:47.408Z,11.60
2018-01-10T10:09:47.427Z,10.60
2018-01-10T10:10:47.458Z,12.70
2018-01-10T10:11:47.497Z,11.50
2018-01-10T10:12:47.526Z,12.40
2018-01-10T10:13:47.635Z,12.60
2018-01-10T10:14:47.595Z,10.00
2018-01-10T10:15:47.628Z,10.20
2018-01-10T10:16:47.660Z,9.30
2018-01-10T10:17:47.702Z,9.50
2018-01-10T10:18:47.730Z,9.80
2018-01-10T10:19:47.761Z,7.90
2018-01-10T10:20:47.977Z,8.60
2018-01-10T10:21:47.831Z,9.90
2018-01-10T10:22:47.866Z,7.20
2018-01-10T10:23:47.897Z,8.10
2018-01-10T10:24:47.931Z,9.10
2018-01-10T10:25:47.966Z,6.90
2018-01-10T10:26:48.003Z,7.20
2018-01-10T10:27:48.032Z,8.80
2018-01-10T10:28:48.069Z,7.70
2018-01-10T10:29:48.101Z,7.50
2018-01-10T10:30:48.136Z,8.10
2018-01-10T10:31:48.170Z,6.70
2018-01-10T10:32:48.203Z,6.50
2018-01-10T10:33:48.237Z,5.10
2018-01-10T10:34:48.270Z,5.60
2018-01-10T10:35:48.320Z,4.40
2018-01-10T10:36:48.337Z,7.00
2018-01-10T10:37:48.431Z,6.90
2018-01-10T10:38:48.435Z,7.30
2018-01-10T10:39:48.506Z,5.90
2018-01-10T10:40:48.472Z,6.60
2018-01-10T10:41:48.512Z,5.50
2018-01-10T10:42:48.541Z,6.20
2018-01-10T10:43:48.573Z,5.70
2018-01-10T10:44:48.608Z,6.00
2018-01-10T10:45:48.641Z,5.60
2018-01-10T10:46:48.673Z,4.70
2018-01-10T10:47:48.708Z,5.90
2018-01-10T10:48:48.745Z,4.40
2018-01-10T10:49:48.784Z,3.80
2018-01-10T10:50:48.810Z,6.40
2018-01-10T10:51:48.841Z,5.80
2018-01-10T10:52:48.880Z,6.30
2018-01-10T10:53:48.913Z,5.20
2018-01-10T10:54:48.944Z,5.80
2018-01-10T10:55:48.983Z,5.10
2018-01-10T10:56:49.020Z,5.40
2018-01-10T10:57:49.246Z,5.30
2018-01-10T10:58:49.081Z,6.70
2018-01-10T10:59:49.123Z,5.70
2018-01-10T11:00:49.159Z,6.20
2018-01-10T11:01:49.178Z,5.20
2018-01-10T11:02:49.214Z,5.80
2018-01-10T11:03:49.313Z,5.70
2018-01-10T11:04:49.340Z,5.40
2018-01-10T11:05:49.316Z,6.70
2018-01-10T11:06:49.353Z,4.10
2018-01-10T11:07:49.377Z,5.50
2018-01-10T11:08:49.410Z,6.00
2018-01-10T11:09:49.443Z,5.20
2018-01-10T11:10:49.586Z,4.80
2018-01-10T11:11:49.512Z,6.70
2018-01-10T11:12:49.556Z,5.40
2018-01-10T11:13:49.576Z,5.30
2018-01-10T11:14:49.611Z,5.20
2018-01-10T11:15:49.641Z,5.40
2018-01-10T11:16:49.676Z,5.90
2018-01-10T11:17:49.713Z,4.10
2018-01-10T11:18:49.742Z,5.60
2018-01-10T11:19:49.777Z,6.70
2018-01-10T11:20:49.813Z,5.30
2018-01-10T11:21:49.842Z,5.10
2018-01-10T11:22:49.873Z,5.80
2018-01-10T11:23:49.907Z,5.20
2018-01-10T11:24:49.942Z,6.40
2018-01-10T11:25:49.974Z,5.80
2018-01-10T11:26:50.007Z,6.10
2018-01-10T11:27:50.049Z,7.00
2018-01-10T11:28:50.074Z,7.20
2018-01-10T11:29:50.145Z,7.10
2018-01-10T11:30:50.143Z,7.40
2018-01-10T11:31:50.175Z,7.30
2018-01-10T11:32:50.207Z,4.70
2018-01-10T11:33:50.238Z,7.40
2018-01-10T11:34:50.272Z,6.60
2018-01-10T11:35:50.303Z,6.10
2018-01-10T11:36:50.694Z,7.60
2018-01-10T11:37:50.393Z,4.70
2018-01-10T11:38:50.409Z,5.60
2018-01-10T11:39:50.517Z,5.30
2018-01-10T11:40:50.476Z,6.70
2018-01-10T11:41:50.505Z,6.20
2018-01-10T11:42:50.538Z,6.10
2018-01-10T11:43:50.568Z,7.20
2018-01-10T11:44:50.600Z,6.70
2018-01-10T11:45:50.635Z,5.80
2018-01-10T11:46:50.734Z,7.30
2018-01-10T11:47:50.703Z,6.80
2018-01-10T11:48:50.734Z,6.60
2018-01-10T11:49:50.768Z,7.80
2018-01-10T11:50:50.806Z,5.50
2018-01-10T11:51:50.836Z,5.70
2018-01-10T11:52:50.866Z,6.60
2018-01-10T11:53:51.004Z,6.00
2018-01-10T11:54:50.936Z,6.00
2018-01-10T11:55:50.969Z,6.30
2018-01-10T11:56:51.002Z,7.60
2018-01-10T11:57:51.039Z,6.30
2018-01-10T11:58:51.070Z,6.80
2018-01-10T11:59:51.105Z,5.30
2018-01-10T12:00:51.179Z,6.20
2018-01-10T12:01:51.174Z,7.10
2018-01-10T12:02:51.205Z,6.70
2018-01-10T12:03:51.238Z,6.00
2018-01-10T12:04:51.273Z,7.30
2018-01-10T12:05:51.303Z,4.90
2018-01-10T12:06:51.337Z,5.40
2018-01-10T12:07:51.372Z,6.30
2018-01-10T12:08:51.403Z,6.90
2018-01-10T12:09:51.438Z,7.10
2018-01-10T12:10:51.475Z,6.60
2018-01-10T12:11:51.500Z,5.40
2018-01-10T12:12:51.599Z,5.30
2018-01-10T12:13:51.578Z,8.30
2018-01-10T12:14:51.613Z,6.90
2018-01-10T12:15:51.642Z,4.70
2018-01-10T12:16:51.675Z,7.00
2018-01-10T12:17:51.709Z,4.40
2018-01-10T12:18:51.739Z,6.60
2018-01-10T12:19:51.774Z,7.20
2018-01-10T12:20:51.805Z,6.50
2018-01-10T12:21:51.833Z,7.40
2018-01-10T12:22:51.868Z,6.50
2018-01-10T12:23:51.906Z,5.80
2018-01-10T12:24:51.950Z,4.90
2018-01-10T12:25:51.969Z,5.30
2018-01-10T12:26:52.046Z,5.70
2018-01-10T12:27:52.035Z,6.40
2018-01-10T12:28:52.070Z,6.00
2018-01-10T12:29:52.101Z,5.80
2018-01-10T12:30:52.139Z,4.70
2018-01-10T12:31:52.191Z,6.90
2018-01-10T12:32:52.205Z,5.00
2018-01-10T12:33:52.236Z,8.20
2018-01-10T12:34:52.269Z,6.60
2018-01-10T12:35:52.303Z,6.60
2018-01-10T12:36:52.338Z,4.90
2018-01-10T12:37:52.371Z,8.90
2018-01-10T12:38:52.436Z,4.80
2018-01-10T12:39:52.440Z,8.10
2018-01-10T12:40:52.471Z,6.00
2018-01-10T12:41:52.571Z,5.60
2018-01-10T12:42:52.541Z,7.20
2018-01-10T12:43:52.570Z,5.20
2018-01-10T12:44:52.608Z,6.60
2018-01-10T12:45:52.643Z,7.40
2018-01-10T12:46:52.725Z,4.90
2018-01-10T12:47:52.705Z,7.00
2018-01-10T12:48:52.748Z,4.70
2018-01-10T12:49:52.773Z,5.50
2018-01-10T12:50:52.871Z,5.70
2018-01-10T12:51:52.838Z,7.50
2018-01-10T12:52:52.877Z,5.50
2018-01-10T12:53:52.909Z,6.10
2018-01-10T12:54:52.942Z,6.20
2018-01-10T12:55:52.972Z,7.80
2018-01-10T12:56:53.007Z,5.80
2018-01-10T12:57:53.365Z,5.40
2018-01-10T12:58:53.072Z,9.40
2018-01-10T12:59:53.103Z,5.70